Stationsdaten - Marckmannstraße

Stationsinformationen

Station auf Karte
Messdaten
Folgende Daten werden angezeigt:

Messgruppe: Meteorologie

Messperiode: Stundenwerte

Zeitraum: Aktueller Tag (24.05.2017 00:00 bis 25.05.2017 00:00)

Messkomponenten

Klicken Sie für weitere Infomationen auf ein Stationssymbol

Daten als CSV-Datei

Die CSV-Datei wird in UTF-8 (Zeichensatz) erstellt

Die Daten der letzten drei Monate sind noch nicht abschließend validiert und somit als vorläufig anzusehen.

  Windrichtung Windgeschwindigkeit Temperatur Niederschlagsmenge Relative Feuchte Globalstrahlung
Einheit ° m/s °C mm % Wh/m²
Messzeit 1h 1h 1h 1h 1h 1h
24.05.2017 23:00 302 3.3 13.4 0 82.7 2
24.05.2017 22:00 311 3.9 13.9 0 71.5 11
24.05.2017 21:00 310 4.7 14.4 0 63.5 48
24.05.2017 20:00 311 4.4 15.1 0 59.6 136
24.05.2017 19:00 304 5.4 15.3 0 55.9 197
24.05.2017 18:00 304 5.6 15.8 0 55.1 282
24.05.2017 17:00 302 5 16 0 53.6 361
24.05.2017 16:00 301 5.2 15.3 0 54.1 196
24.05.2017 15:00 305 6.2 15.2 0 52.2 296
24.05.2017 14:00 300 6.3 15.6 0 53.9 487
24.05.2017 13:00 304 6.1 15.6 0 57 473
24.05.2017 12:00 298 5.7 14.9 0 60.2 406
24.05.2017 11:00 310 5.4 14.4 0 61.5 389
24.05.2017 10:00 321 5.9 13.6 0 64.1 460
24.05.2017 09:00 315 6.1 12.8 0 68.8 366
24.05.2017 08:00 309 5 12.2 0 78.1 249
24.05.2017 07:00 298 4.3 11.4 0 87.3 53
24.05.2017 06:00 297 4.3 11.2 0 88 10
24.05.2017 05:00 301 4.2 11.3 0 88 3
24.05.2017 04:00 297 4.7 11.5 0 86.5 3
24.05.2017 03:00 296 5.1 11.7 0 84.6 3
24.05.2017 02:00 299 5.1 11.9 0 82.2 3
24.05.2017 01:00 301 5.1 12.4 0 78.6 3
24.05.2017 00:00 299 5.5 12.6 0 76.7 3
  Windrichtung Windgeschwindigkeit Temperatur Niederschlagsmenge Relative Feuchte Globalstrahlung
Einheit ° m/s °C mm % Wh/m²
Messzeit 1h 1h 1h 1h 1h 1h